Time;durP1;ratioP1;P1;durP2;ratioP2;P2;SDS_P1;SDS_P2;PMS_P1;PMS_P2;Temp;Humidity;BMP_temperature;BMP_pressure;BME280_temperature;BME280_humidity;BME280_pressure;Samples;Min_cycle;Max_cycle;Signal;HPM_P1;HPM_P2
2023/03/29 00:01:10;;;;;;;0.43;0.43;;;6.70;99.90;;;;;;5008759;28;20042;-66
2023/03/29 00:03:38;;;;;;;6.43;1.00;;;6.70;99.90;;;;;;4992929;28;20049;-65
2023/03/29 00:06:04;;;;;;;0.20;0.20;;;6.70;99.90;;;;;;5001095;28;20048;-65
2023/03/29 00:08:30;;;;;;;0.52;0.52;;;6.70;99.90;;;;;;4998140;28;20486;-65
2023/03/29 00:10:57;;;;;;;1.48;1.38;;;6.70;99.90;;;;;;5002294;28;20046;-65
2023/03/29 00:13:25;;;;;;;0.20;0.20;;;6.70;99.90;;;;;;5008636;28;20048;-65
2023/03/29 00:15:51;;;;;;;0.10;0.10;;;6.70;99.90;;;;;;4997817;28;20069;-66
2023/03/29 00:18:17;;;;;;;0.10;0.10;;;6.70;99.90;;;;;;5004847;28;20046;-66
2023/03/29 00:20:42;;;;;;;0.65;0.65;;;6.70;99.90;;;;;;4998642;28;20058;-65
2023/03/29 00:23:08;;;;;;;0.43;0.43;;;6.70;99.90;;;;;;5005613;28;20045;-66
2023/03/29 00:25:34;;;;;;;0.10;0.10;;;6.70;99.90;;;;;;4997750;28;20050;-66
2023/03/29 00:28:00;;;;;;;0.10;0.10;;;6.70;99.90;;;;;;5006071;28;20101;-66
2023/03/29 00:30:25;;;;;;;0.10;0.10;;;6.70;99.90;;;;;;4996320;28;20069;-66
2023/03/29 00:32:51;;;;;;;0.10;0.10;;;6.70;99.90;;;;;;5008423;28;20082;-65
2023/03/29 00:35:17;;;;;;;0.38;0.38;;;6.70;99.90;;;;;;4993519;28;20117;-66
2023/03/29 00:37:45;;;;;;;0.10;0.10;;;6.70;99.90;;;;;;5003697;28;20061;-65
2023/03/29 00:40:12;;;;;;;0.85;0.85;;;6.70;99.90;;;;;;5004765;28;20108;-65
2023/03/29 00:42:37;;;;;;;0.20;0.20;;;6.70;99.90;;;;;;5007710;28;20547;-65
2023/03/29 00:45:12;;;;;;;0.00;0.00;;;6.70;99.90;;;;;;5009395;28;20133;-65
2023/03/29 00:47:45;;;;;;;0.52;0.52;;;6.60;99.90;;;;;;4996691;28;20050;-65
2023/03/29 00:50:31;;;;;;;0.35;0.35;;;6.60;99.90;;;;;;5001140;28;20050;-65
2023/03/29 00:53:08;;;;;;;0.10;0.10;;;6.60;99.90;;;;;;5004680;28;20046;-65
2023/03/29 00:55:43;;;;;;;1.80;0.75;;;6.60;99.90;;;;;;5001880;28;20081;-65
2023/03/29 00:58:12;;;;;;;0.10;0.10;;;6.60;99.90;;;;;;5006797;28;20044;-65
2023/03/29 01:00:47;;;;;;;0.20;0.20;;;6.60;99.90;;;;;;5004364;28;20438;-65
2023/03/29 01:03:23;;;;;;;0.10;0.10;;;6.60;99.90;;;;;;5008755;28;20034;-65
2023/03/29 01:05:53;;;;;;;0.10;0.10;;;6.50;99.90;;;;;;5005891;28;20405;-66
2023/03/29 01:08:26;;;;;;;0.10;0.10;;;6.60;99.90;;;;;;5009604;28;20052;-65
2023/03/29 01:11:06;;;;;;;0.10;0.10;;;6.60;99.90;;;;;;5011171;28;20092;-65
2023/03/29 01:14:02;;;;;;;0.10;0.10;;;6.60;99.90;;;;;;5007082;28;20054;-65
2023/03/29 01:16:29;;;;;;;0.10;0.10;;;6.60;99.90;;;;;;5009505;28;20050;-65
2023/03/29 01:18:57;;;;;;;0.10;0.10;;;6.70;99.90;;;;;;5014473;28;20096;-65
2023/03/29 01:21:26;;;;;;;0.10;0.10;;;6.60;99.90;;;;;;5012482;28;20046;-65
2023/03/29 01:24:06;;;;;;;0.47;0.45;;;6.60;99.90;;;;;;5003774;28;20056;-66
2023/03/29 01:26:58;;;;;;;0.10;0.10;;;6.60;99.90;;;;;;5009895;28;20049;-65
2023/03/29 01:29:40;;;;;;;0.10;0.10;;;6.50;99.90;;;;;;5015407;28;20041;-65
2023/03/29 01:32:15;;;;;;;0.10;0.10;;;6.50;99.90;;;;;;5000535;28;20631;-66
2023/03/29 01:35:00;;;;;;;0.10;0.10;;;6.50;99.90;;;;;;5010652;28;20054;-66
2023/03/29 01:37:33;;;;;;;0.10;0.10;;;6.50;99.90;;;;;;5005944;28;20038;-65
2023/03/29 01:39:59;;;;;;;0.10;0.10;;;6.50;99.90;;;;;;4999880;28;20044;-65
2023/03/29 01:43:15;;;;;;;0.00;0.00;;;6.50;99.90;;;;;;5012216;28;20281;-65
2023/03/29 01:45:48;;;;;;;0.10;0.10;;;6.50;99.90;;;;;;4944171;28;20070;-65
2023/03/29 01:48:27;;;;;;;0.30;0.30;;;6.50;99.90;;;;;;5010802;28;20049;-65
2023/03/29 01:51:03;;;;;;;0.10;0.10;;;6.50;99.90;;;;;;4997051;28;20390;-65
2023/03/29 01:53:37;;;;;;;1.17;1.05;;;6.50;99.90;;;;;;5004102;28;20112;-66
2023/03/29 01:56:10;;;;;;;0.10;0.10;;;6.60;99.90;;;;;;5002167;28;20035;-65
2023/03/29 01:58:42;;;;;;;0.10;0.10;;;6.60;99.90;;;;;;5009638;28;20053;-65
2023/03/29 02:01:10;;;;;;;0.10;0.10;;;6.50;99.90;;;;;;5004195;28;20490;-65
2023/03/29 02:03:41;;;;;;;0.22;0.22;;;6.60;99.90;;;;;;5002253;28;20568;-65
2023/03/29 02:06:09;;;;;;;0.85;0.85;;;6.50;99.90;;;;;;5011061;28;20042;-65
2023/03/29 02:08:37;;;;;;;1.30;1.20;;;6.60;99.90;;;;;;5004800;28;20713;-65
2023/03/29 02:11:03;;;;;;;0.65;0.40;;;6.60;99.90;;;;;;5003126;28;20042;-65
2023/03/29 02:13:29;;;;;;;0.10;0.10;;;6.50;99.90;;;;;;5004992;28;20398;-65
2023/03/29 02:15:58;;;;;;;0.03;0.03;;;6.50;99.90;;;;;;5003599;28;20038;-65
2023/03/29 02:18:24;;;;;;;0.10;0.10;;;6.50;99.90;;;;;;5010784;28;20113;-66
2023/03/29 02:20:52;;;;;;;0.00;0.00;;;6.60;99.90;;;;;;5015337;28;20046;-65
2023/03/29 02:23:23;;;;;;;0.38;0.38;;;6.50;99.90;;;;;;5006886;28;20080;-65
2023/03/29 02:25:52;;;;;;;0.00;0.00;;;6.50;99.90;;;;;;5010199;28;20046;-65
2023/03/29 02:28:20;;;;;;;0.08;0.08;;;6.60;99.90;;;;;;4998868;28;20049;-65
2023/03/29 02:31:04;;;;;;;0.10;0.10;;;6.60;99.90;;;;;;5005975;28;20057;-66
2023/03/29 02:34:02;;;;;;;;;;;6.60;99.90;;;;;;5011459;28;20041;-65
2023/03/29 02:36:41;;;;;;;0.10;0.10;;;6.60;99.90;;;;;;4974027;28;19922;-65
2023/03/29 02:39:11;;;;;;;0.10;0.10;;;6.50;99.90;;;;;;5020568;28;20049;-65
2023/03/29 02:41:38;;;;;;;0.10;0.10;;;6.60;99.90;;;;;;5010674;28;20042;-65
2023/03/29 02:44:07;;;;;;;0.10;0.10;;;6.50;99.90;;;;;;4996445;28;20498;-66
2023/03/29 02:46:33;;;;;;;0.10;0.10;;;6.50;99.90;;;;;;5004179;28;20401;-65
2023/03/29 02:48:59;;;;;;;0.05;0.05;;;6.60;99.90;;;;;;5008613;28;20135;-65
2023/03/29 02:51:30;;;;;;;0.00;0.00;;;6.60;99.90;;;;;;4997589;28;20046;-65
2023/03/29 02:54:05;;;;;;;0.10;0.10;;;6.60;99.90;;;;;;5010379;28;20045;-66
2023/03/29 02:56:44;;;;;;;0.52;0.52;;;6.60;99.90;;;;;;4996416;28;20051;-65
2023/03/29 02:59:11;;;;;;;0.10;0.10;;;6.60;99.90;;;;;;5010948;28;20087;-65
2023/03/29 03:01:38;;;;;;;0.10;0.10;;;6.50;99.90;;;;;;5010420;28;20069;-65
2023/03/29 03:04:04;;;;;;;0.22;0.22;;;6.60;99.90;;;;;;5007477;28;20112;-66
2023/03/29 03:06:29;;;;;;;0.10;0.10;;;6.50;99.90;;;;;;5000507;28;20398;-65
2023/03/29 03:08:55;;;;;;;0.20;0.20;;;6.50;99.90;;;;;;5010960;28;20049;-65
2023/03/29 03:11:22;;;;;;;0.00;0.00;;;6.50;99.90;;;;;;5009434;28;20477;-65
2023/03/29 03:13:48;;;;;;;0.10;0.10;;;6.60;99.90;;;;;;5006941;28;20050;-65
2023/03/29 03:16:13;;;;;;;0.05;0.05;;;6.50;99.90;;;;;;5001643;28;20441;-65
2023/03/29 03:18:39;;;;;;;0.10;0.10;;;6.50;99.90;;;;;;5003751;28;20052;-66
2023/03/29 03:21:05;;;;;;;0.10;0.10;;;6.60;99.90;;;;;;5003238;28;20126;-65
2023/03/29 03:23:30;;;;;;;0.10;0.10;;;6.60;99.90;;;;;;5018656;28;20038;-65
2023/03/29 03:25:57;;;;;;;0.10;0.10;;;6.60;99.90;;;;;;5013010;28;20054;-65
2023/03/29 03:28:23;;;;;;;0.10;0.10;;;6.60;99.90;;;;;;4998237;28;20085;-66
2023/03/29 03:30:49;;;;;;;0.10;0.10;;;6.60;99.90;;;;;;5004236;28;20121;-65
2023/03/29 03:33:15;;;;;;;0.10;0.10;;;6.60;99.90;;;;;;5009421;28;20117;-65
2023/03/29 03:35:41;;;;;;;0.10;0.10;;;6.60;99.90;;;;;;5012961;28;20537;-65
2023/03/29 03:38:07;;;;;;;0.00;0.00;;;6.60;99.90;;;;;;4995704;28;20133;-65
2023/03/29 03:40:33;;;;;;;0.10;0.10;;;6.60;99.90;;;;;;5003203;28;20084;-65
2023/03/29 03:42:59;;;;;;;0.10;0.10;;;6.60;99.90;;;;;;5000621;28;20073;-65
2023/03/29 03:45:25;;;;;;;0.10;0.10;;;6.60;99.90;;;;;;5002308;28;20057;-65
2023/03/29 03:47:50;;;;;;;0.10;0.10;;;6.60;99.90;;;;;;4997750;28;20100;-65
2023/03/29 03:50:17;;;;;;;0.38;0.38;;;6.70;99.90;;;;;;5003183;28;20485;-66
2023/03/29 03:52:43;;;;;;;0.73;0.68;;;6.60;99.90;;;;;;5002676;28;20879;-65
2023/03/29 03:55:09;;;;;;;0.52;0.52;;;6.60;99.90;;;;;;5001166;28;20104;-65
2023/03/29 03:57:38;;;;;;;0.10;0.10;;;6.70;99.90;;;;;;5010442;28;20046;-65
2023/03/29 04:00:21;;;;;;;0.10;0.10;;;6.60;99.90;;;;;;4998328;28;20101;-65
2023/03/29 04:02:47;;;;;;;0.20;0.20;;;6.70;99.90;;;;;;5001257;28;20104;-65
2023/03/29 04:05:13;;;;;;;0.00;0.00;;;6.70;99.90;;;;;;5009882;28;20050;-65
2023/03/29 04:07:40;;;;;;;1.38;0.70;;;6.70;99.90;;;;;;5002271;28;20049;-65
2023/03/29 04:10:07;;;;;;;0.13;0.13;;;6.70;99.90;;;;;;5005310;28;20502;-65
2023/03/29 04:12:34;;;;;;;0.10;0.10;;;6.70;99.90;;;;;;5009932;28;20481;-66
2023/03/29 04:15:00;;;;;;;0.10;0.10;;;6.70;99.90;;;;;;5002684;28;20058;-65
2023/03/29 04:17:26;;;;;;;0.10;0.10;;;6.70;99.90;;;;;;4996487;28;20050;-65
2023/03/29 04:19:51;;;;;;;0.10;0.10;;;6.70;99.90;;;;;;5009452;28;20462;-65
2023/03/29 04:22:17;;;;;;;0.13;0.13;;;6.70;99.90;;;;;;4999228;28;20058;-66
2023/03/29 04:24:43;;;;;;;0.10;0.10;;;6.70;99.90;;;;;;5012168;28;20080;-65
2023/03/29 04:27:08;;;;;;;0.65;0.65;;;6.70;99.90;;;;;;5008633;28;20050;-65
2023/03/29 04:29:34;;;;;;;0.10;0.10;;;6.70;99.90;;;;;;5005949;28;20048;-65
2023/03/29 04:31:59;;;;;;;0.05;0.05;;;6.70;99.90;;;;;;5013295;28;20043;-65
2023/03/29 04:34:25;;;;;;;0.10;0.10;;;6.70;99.90;;;;;;5014056;28;20042;-65
2023/03/29 04:36:51;;;;;;;0.10;0.10;;;6.80;99.90;;;;;;5003773;28;20412;-65
2023/03/29 04:39:17;;;;;;;0.10;0.10;;;6.70;99.90;;;;;;5002432;28;20033;-65
2023/03/29 04:41:43;;;;;;;0.10;0.10;;;6.70;99.90;;;;;;5011122;28;20046;-65
2023/03/29 04:44:11;;;;;;;0.00;0.00;;;6.70;99.90;;;;;;5005295;28;20042;-65
2023/03/29 04:46:38;;;;;;;0.10;0.10;;;6.70;99.90;;;;;;4994449;28;20089;-65
2023/03/29 04:49:05;;;;;;;0.10;0.10;;;6.80;99.90;;;;;;5006315;28;20097;-65
2023/03/29 04:51:31;;;;;;;0.00;0.00;;;6.70;99.90;;;;;;5002743;28;20410;-65
2023/03/29 04:53:56;;;;;;;0.47;0.47;;;6.80;99.90;;;;;;5003186;28;20068;-65
2023/03/29 04:56:22;;;;;;;0.65;0.65;;;6.80;99.90;;;;;;5003741;28;20058;-65
2023/03/29 04:58:48;;;;;;;0.10;0.10;;;6.80;99.90;;;;;;5000572;28;20046;-65
2023/03/29 05:01:14;;;;;;;0.10;0.10;;;6.80;99.90;;;;;;5005325;28;20049;-65
2023/03/29 05:03:40;;;;;;;0.10;0.10;;;6.80;99.90;;;;;;4996344;28;20095;-65
2023/03/29 05:06:07;;;;;;;0.10;0.10;;;6.80;99.90;;;;;;5005552;28;20077;-65
2023/03/29 05:08:37;;;;;;;0.10;0.10;;;6.80;99.90;;;;;;5007201;28;20408;-65
2023/03/29 05:11:03;;;;;;;0.10;0.10;;;6.80;99.90;;;;;;5001799;28;20043;-65
2023/03/29 05:13:29;;;;;;;0.10;0.10;;;6.80;99.90;;;;;;5009820;28;20049;-65
2023/03/29 05:15:55;;;;;;;0.10;0.10;;;6.80;99.90;;;;;;5004160;28;20039;-65
2023/03/29 05:18:21;;;;;;;0.10;0.10;;;6.80;99.90;;;;;;4999396;28;20512;-65
2023/03/29 05:20:49;;;;;;;0.10;0.10;;;6.80;99.90;;;;;;5009626;28;20034;-65
2023/03/29 05:23:16;;;;;;;0.10;0.10;;;6.80;99.90;;;;;;5003248;28;20069;-65
2023/03/29 05:25:42;;;;;;;0.25;0.25;;;6.90;99.90;;;;;;5006561;28;20046;-65
2023/03/29 05:28:08;;;;;;;0.10;0.10;;;6.90;99.90;;;;;;5006645;28;20054;-65
2023/03/29 05:30:34;;;;;;;0.38;0.38;;;6.90;99.90;;;;;;5004465;28;20064;-65
2023/03/29 05:33:01;;;;;;;0.00;0.00;;;6.90;99.90;;;;;;5007968;28;20045;-65
2023/03/29 05:35:27;;;;;;;0.00;0.00;;;6.90;99.90;;;;;;4998847;28;20074;-65
2023/03/29 05:37:54;;;;;;;0.25;0.25;;;7.00;99.90;;;;;;5010250;28;20084;-65
2023/03/29 05:40:20;;;;;;;0.10;0.10;;;6.90;99.90;;;;;;5011008;28;20054;-65
2023/03/29 05:42:45;;;;;;;0.38;0.28;;;7.00;99.90;;;;;;5014203;28;20038;-65
2023/03/29 05:45:11;;;;;;;0.40;0.40;;;6.90;99.90;;;;;;5013435;28;20078;-65
2023/03/29 05:47:37;;;;;;;0.38;0.38;;;6.90;99.90;;;;;;5015911;28;20056;-65
2023/03/29 05:50:03;;;;;;;0.10;0.10;;;6.90;99.90;;;;;;5004498;28;20050;-65
2023/03/29 05:52:28;;;;;;;0.10;0.10;;;7.00;99.90;;;;;;5005832;28;20096;-65
2023/03/29 05:54:55;;;;;;;0.20;0.20;;;6.90;99.90;;;;;;5014333;28;20050;-65
2023/03/29 05:57:21;;;;;;;0.00;0.00;;;6.90;99.90;;;;;;5011711;28;20422;-65
2023/03/29 05:59:47;;;;;;;0.10;0.10;;;6.90;99.90;;;;;;4996893;28;20078;-65
2023/03/29 06:02:14;;;;;;;0.10;0.10;;;6.90;99.90;;;;;;5005840;28;20065;-65
2023/03/29 06:04:40;;;;;;;0.00;0.00;;;6.90;99.90;;;;;;5011136;28;20140;-66
2023/03/29 06:07:07;;;;;;;0.20;0.20;;;7.00;99.90;;;;;;5011276;28;20425;-66
2023/03/29 06:09:32;;;;;;;0.10;0.10;;;7.00;99.90;;;;;;4995477;28;20054;-66
2023/03/29 06:12:00;;;;;;;0.28;0.28;;;7.00;99.90;;;;;;5015724;28;20371;-66
2023/03/29 06:14:26;;;;;;;0.10;0.10;;;7.00;99.90;;;;;;5016285;28;20049;-66
2023/03/29 06:16:52;;;;;;;0.10;0.10;;;7.00;99.90;;;;;;5007073;28;20050;-66
2023/03/29 06:19:18;;;;;;;0.10;0.10;;;7.10;99.90;;;;;;5002251;28;20044;-66
2023/03/29 06:21:43;;;;;;;0.10;0.10;;;7.10;99.90;;;;;;5003926;28;20446;-66
2023/03/29 06:24:09;;;;;;;0.57;0.45;;;7.10;99.90;;;;;;5004893;28;20596;-65
2023/03/29 06:26:35;;;;;;;0.10;0.10;;;7.10;99.90;;;;;;5000509;28;20045;-66
2023/03/29 06:29:03;;;;;;;0.13;0.13;;;7.10;99.90;;;;;;5014287;28;20060;-66
2023/03/29 06:31:30;;;;;;;0.17;0.17;;;7.20;99.90;;;;;;5012173;28;20042;-66
2023/03/29 06:33:57;;;;;;;0.43;0.43;;;7.10;99.90;;;;;;5002958;28;20081;-66
2023/03/29 06:36:23;;;;;;;0.40;0.40;;;7.20;99.90;;;;;;5009022;28;20080;-65
2023/03/29 06:38:48;;;;;;;0.40;0.40;;;7.20;99.90;;;;;;5010345;28;20478;-65
2023/03/29 06:41:14;;;;;;;0.35;0.35;;;7.20;99.90;;;;;;5002792;28;20125;-66
2023/03/29 06:43:39;;;;;;;0.28;0.28;;;7.20;99.90;;;;;;5009244;28;20042;-66
2023/03/29 06:46:10;;;;;;;0.10;0.10;;;7.30;99.90;;;;;;4996420;28;20054;-66
2023/03/29 06:48:40;;;;;;;0.10;0.10;;;7.30;99.90;;;;;;4998928;28;20409;-65
2023/03/29 06:51:06;;;;;;;0.28;0.28;;;7.30;99.90;;;;;;5008962;28;20573;-66
2023/03/29 06:53:32;;;;;;;0.25;0.20;;;7.40;99.90;;;;;;5014806;28;20073;-66
2023/03/29 06:55:58;;;;;;;3.50;1.17;;;7.40;99.90;;;;;;4998986;28;20441;-65
2023/03/29 06:58:24;;;;;;;0.15;0.15;;;7.40;99.90;;;;;;4991044;28;20046;-66
2023/03/29 07:00:50;;;;;;;0.30;0.30;;;7.50;99.90;;;;;;5008908;28;20042;-66
2023/03/29 07:03:22;;;;;;;0.20;0.20;;;7.50;99.90;;;;;;5002359;28;20042;-66
2023/03/29 07:05:50;;;;;;;0.10;0.10;;;7.50;99.90;;;;;;5011194;28;20042;-66
2023/03/29 07:08:17;;;;;;;0.10;0.10;;;7.60;99.90;;;;;;5010699;28;20124;-66
2023/03/29 07:10:51;;;;;;;0.10;0.10;;;7.60;99.90;;;;;;5003116;28;20401;-66
2023/03/29 07:13:16;;;;;;;0.90;0.73;;;7.60;99.90;;;;;;4998744;28;20053;-66
2023/03/29 07:15:43;;;;;;;0.25;0.25;;;7.60;99.90;;;;;;4999912;28;20043;-65
2023/03/29 07:18:10;;;;;;;0.10;0.10;;;7.70;99.90;;;;;;5019905;28;20042;-66
2023/03/29 07:20:37;;;;;;;0.43;0.40;;;7.70;99.90;;;;;;5000565;28;20473;-66
2023/03/29 07:23:03;;;;;;;0.10;0.10;;;7.80;99.90;;;;;;5001058;28;20037;-66
2023/03/29 07:25:29;;;;;;;0.10;0.10;;;7.80;99.90;;;;;;5010174;28;20053;-66
2023/03/29 07:27:55;;;;;;;0.40;0.40;;;7.80;99.90;;;;;;4993874;28;20038;-65
2023/03/29 07:30:24;;;;;;;0.10;0.10;;;7.90;99.90;;;;;;5009603;28;20033;-66
2023/03/29 07:32:51;;;;;;;0.20;0.20;;;7.90;99.90;;;;;;5005317;28;20038;-66
2023/03/29 07:35:17;;;;;;;0.10;0.10;;;7.90;99.90;;;;;;5000997;28;20048;-66
2023/03/29 07:37:45;;;;;;;0.38;0.38;;;8.00;99.90;;;;;;5013949;28;20059;-66
2023/03/29 07:40:22;;;;;;;0.85;0.85;;;8.10;99.90;;;;;;5014763;28;20046;-66
2023/03/29 07:42:53;;;;;;;0.15;0.15;;;8.10;99.90;;;;;;4997390;28;20049;-66
2023/03/29 07:45:20;;;;;;;0.45;0.45;;;8.10;99.90;;;;;;5009122;28;20060;-66
2023/03/29 07:47:47;;;;;;;0.57;0.57;;;8.10;99.90;;;;;;5010374;28;20057;-66
2023/03/29 07:50:13;;;;;;;0.10;0.10;;;8.10;99.90;;;;;;4999788;28;20117;-66
2023/03/29 07:52:39;;;;;;;6.35;2.08;;;8.10;99.90;;;;;;5001665;28;20052;-66
2023/03/29 07:55:06;;;;;;;1.73;1.63;;;8.20;99.90;;;;;;5008620;28;20402;-66
2023/03/29 07:57:32;;;;;;;0.85;0.85;;;8.20;99.90;;;;;;4999829;28;20058;-66
2023/03/29 07:59:58;;;;;;;0.52;0.52;;;8.20;99.90;;;;;;4995501;28;20482;-66
2023/03/29 08:02:24;;;;;;;0.10;0.10;;;8.30;99.90;;;;;;5007806;28;20389;-66
2023/03/29 08:04:50;;;;;;;0.57;0.57;;;8.30;99.90;;;;;;4994739;28;20034;-66
2023/03/29 08:07:20;;;;;;;0.30;0.30;;;8.30;99.90;;;;;;5009614;28;20053;-66
2023/03/29 08:09:45;;;;;;;0.13;0.13;;;8.40;99.90;;;;;;5010330;28;20050;-66
2023/03/29 08:12:11;;;;;;;0.50;0.50;;;8.40;99.90;;;;;;5001159;28;20073;-66
2023/03/29 08:14:37;;;;;;;0.32;0.32;;;8.40;99.90;;;;;;4992873;28;20047;-66
2023/03/29 08:17:03;;;;;;;0.05;0.05;;;8.40;99.90;;;;;;5006871;28;20052;-66
2023/03/29 08:19:29;;;;;;;0.10;0.10;;;8.50;99.90;;;;;;4993245;28;20047;-66
2023/03/29 08:21:55;;;;;;;0.68;0.68;;;8.50;99.90;;;;;;4996283;28;20092;-66
2023/03/29 08:24:21;;;;;;;0.30;0.30;;;8.50;99.90;;;;;;5000106;28;20453;-66
2023/03/29 08:26:47;;;;;;;0.10;0.10;;;8.60;99.90;;;;;;5000417;28;20050;-66
2023/03/29 08:29:13;;;;;;;0.43;0.43;;;8.60;99.90;;;;;;5004219;28;20401;-66
2023/03/29 08:31:39;;;;;;;0.22;0.22;;;8.60;99.90;;;;;;5006706;28;20045;-66
2023/03/29 08:34:05;;;;;;;0.52;0.52;;;8.70;99.90;;;;;;4999432;28;20128;-66
2023/03/29 08:36:30;;;;;;;0.25;0.25;;;8.70;99.90;;;;;;5004068;28;20053;-66
2023/03/29 08:38:56;;;;;;;0.10;0.10;;;8.70;99.90;;;;;;5002714;28;20043;-66
2023/03/29 08:41:22;;;;;;;0.20;0.20;;;8.70;99.90;;;;;;5001854;28;20042;-66
2023/03/29 08:44:01;;;;;;;0.15;0.15;;;8.80;99.90;;;;;;5007426;28;20128;-66
2023/03/29 08:46:41;;;;;;;0.80;0.52;;;8.80;99.90;;;;;;5000217;28;20082;-66
2023/03/29 08:49:09;;;;;;;0.45;0.45;;;8.90;99.90;;;;;;5002481;28;20396;-66
2023/03/29 08:51:39;;;;;;;0.50;0.50;;;8.90;99.90;;;;;;5001866;28;20042;-66
2023/03/29 08:54:12;;;;;;;0.63;0.63;;;8.90;99.90;;;;;;4999285;28;20501;-66
2023/03/29 08:56:39;;;;;;;0.20;0.20;;;9.00;99.90;;;;;;5004459;28;20487;-66
2023/03/29 08:59:17;;;;;;;0.10;0.10;;;9.00;99.90;;;;;;5008003;28;20815;-66
2023/03/29 09:01:43;;;;;;;0.40;0.40;;;9.10;99.90;;;;;;5003876;28;20049;-66
2023/03/29 09:04:15;;;;;;;0.20;0.20;;;9.10;99.90;;;;;;5021416;28;20049;-66
2023/03/29 09:06:40;;;;;;;0.30;0.30;;;9.10;99.90;;;;;;5009909;28;20050;-66
2023/03/29 09:09:16;;;;;;;0.65;0.65;;;9.10;99.90;;;;;;5008441;28;20048;-66
2023/03/29 09:12:12;;;;;;;0.10;0.10;;;9.10;99.90;;;;;;5007391;28;20041;-65
2023/03/29 09:14:57;;;;;;;1.90;1.80;;;9.20;99.90;;;;;;5007665;28;20066;-66
2023/03/29 09:17:46;;;;;;;0.10;0.10;;;9.20;99.90;;;;;;5005557;28;20054;-65
2023/03/29 09:20:36;;;;;;;0.47;0.47;;;9.30;99.90;;;;;;5008592;28;20055;-66
2023/03/29 09:23:22;;;;;;;0.93;0.30;;;9.20;99.90;;;;;;5011647;28;20056;-66
2023/03/29 09:26:05;;;;;;;1.17;1.10;;;9.30;99.90;;;;;;5011507;28;20042;-65
2023/03/29 09:28:39;;;;;;;0.10;0.10;;;9.30;99.90;;;;;;5003079;28;20053;-66
2023/03/29 09:31:20;;;;;;;0.82;0.82;;;9.30;99.90;;;;;;5008301;28;20045;-66
2023/03/29 09:33:58;;;;;;;0.10;0.10;;;9.40;99.90;;;;;;5005886;28;20061;-65
2023/03/29 09:36:30;;;;;;;0.45;0.45;;;9.40;99.90;;;;;;5001899;28;20076;-66
2023/03/29 09:38:56;;;;;;;0.30;0.30;;;9.40;99.90;;;;;;5005958;28;20042;-66
2023/03/29 09:41:33;;;;;;;0.90;0.90;;;9.50;99.90;;;;;;5003181;28;20052;-66
2023/03/29 09:44:04;;;;;;;0.10;0.10;;;9.40;99.90;;;;;;5006436;28;20065;-66
2023/03/29 09:46:38;;;;;;;0.20;0.20;;;9.50;99.90;;;;;;4998774;28;20062;-66
2023/03/29 09:49:09;;;;;;;1.20;1.15;;;9.50;99.90;;;;;;5008860;28;20183;-65
2023/03/29 09:51:37;;;;;;;3.75;0.47;;;9.50;99.90;;;;;;4997431;28;20577;-65
2023/03/29 09:54:03;;;;;;;2.72;1.38;;;9.50;99.90;;;;;;5013135;28;20049;-66
2023/03/29 09:56:29;;;;;;;0.70;0.70;;;9.50;99.90;;;;;;5012010;28;20398;-66
2023/03/29 09:58:55;;;;;;;1.55;1.45;;;9.60;99.90;;;;;;5009975;28;20109;-66
2023/03/29 10:01:20;;;;;;;0.38;0.38;;;9.60;99.90;;;;;;5005204;28;20394;-66
2023/03/29 10:03:51;;;;;;;0.95;0.95;;;9.60;99.90;;;;;;5021148;28;20048;-66
2023/03/29 10:06:18;;;;;;;0.30;0.30;;;9.60;99.90;;;;;;5006686;28;20041;-65
2023/03/29 10:08:57;;;;;;;0.20;0.20;;;9.60;99.90;;;;;;5004621;28;20150;-65
2023/03/29 10:11:35;;;;;;;1.63;1.38;;;9.70;99.90;;;;;;4996485;28;20054;-66
2023/03/29 10:14:12;;;;;;;0.10;0.10;;;9.80;99.90;;;;;;5000904;28;20057;-66
2023/03/29 10:16:45;;;;;;;0.40;0.40;;;9.80;99.90;;;;;;5010073;28;20219;-66
2023/03/29 10:19:20;;;;;;;0.45;0.45;;;9.90;99.90;;;;;;5006026;28;20051;-66
2023/03/29 10:21:52;;;;;;;0.63;0.63;;;10.00;99.90;;;;;;4999951;28;20050;-66
2023/03/29 10:24:23;;;;;;;1.00;1.00;;;10.00;99.90;;;;;;4997599;28;20386;-66
2023/03/29 10:26:54;;;;;;;1.50;1.05;;;10.10;99.90;;;;;;4997333;28;20297;-66
2023/03/29 10:29:21;;;;;;;0.63;0.63;;;10.20;99.90;;;;;;5006165;28;20045;-66
2023/03/29 10:31:47;;;;;;;7.78;1.55;;;10.20;99.90;;;;;;4999793;28;20074;-66
2023/03/29 10:34:15;;;;;;;0.40;0.40;;;10.20;99.90;;;;;;5005803;28;20072;-66
2023/03/29 10:36:44;;;;;;;47.80;1.88;;;10.30;99.90;;;;;;5009985;28;20390;-66
2023/03/29 10:39:13;;;;;;;4.10;1.75;;;10.30;99.90;;;;;;5006076;28;20406;-66
2023/03/29 10:41:39;;;;;;;1.88;1.67;;;10.30;99.90;;;;;;5009790;28;20046;-66
2023/03/29 10:44:05;;;;;;;4.18;1.70;;;10.30;99.90;;;;;;5011274;28;20104;-66
2023/03/29 10:46:40;;;;;;;1.85;1.75;;;10.30;99.90;;;;;;5003831;28;20056;-66
2023/03/29 10:49:17;;;;;;;0.28;0.28;;;10.40;99.90;;;;;;5008079;28;20042;-66
2023/03/29 10:51:48;;;;;;;14.57;2.90;;;10.40;99.90;;;;;;5003737;28;20429;-66
2023/03/29 10:54:19;;;;;;;2.30;1.25;;;10.40;99.90;;;;;;5003530;28;20038;-66
2023/03/29 10:57:01;;;;;;;0.10;0.10;;;10.50;99.90;;;;;;5009614;28;20358;-66
2023/03/29 10:59:30;;;;;;;0.52;0.52;;;10.50;99.90;;;;;;4998949;28;20050;-66
2023/03/29 11:02:13;;;;;;;0.80;0.80;;;10.60;99.90;;;;;;5007777;28;20121;-66
2023/03/29 11:04:55;;;;;;;1.77;1.08;;;10.60;99.90;;;;;;5011047;28;20124;-66
2023/03/29 11:07:45;;;;;;;1.17;1.08;;;10.70;99.90;;;;;;4995588;28;20046;-66
2023/03/29 11:10:34;;;;;;;0.55;0.55;;;10.80;99.90;;;;;;4999303;28;20041;-66
2023/03/29 11:13:24;;;;;;;0.55;0.55;;;10.80;99.90;;;;;;5006399;28;20046;-66
2023/03/29 11:16:08;;;;;;;1.30;1.20;;;10.80;99.90;;;;;;4999176;28;20516;-66
2023/03/29 11:19:01;;;;;;;0.55;0.55;;;10.80;99.90;;;;;;4998896;28;20178;-66
2023/03/29 11:21:48;;;;;;;0.80;0.80;;;10.90;99.90;;;;;;4994084;28;20092;-66
2023/03/29 11:24:25;;;;;;;0.85;0.85;;;11.10;99.90;;;;;;5004043;28;20046;-66
2023/03/29 11:27:08;;;;;;;0.82;0.73;;;11.10;99.90;;;;;;5009915;28;20045;-66
2023/03/29 11:29:48;;;;;;;2.20;1.90;;;11.20;99.90;;;;;;5002856;28;20057;-66
2023/03/29 11:32:41;;;;;;;0.98;0.98;;;11.20;99.90;;;;;;5009880;28;20505;-66
2023/03/29 11:35:23;;;;;;;0.63;0.63;;;11.20;99.90;;;;;;5000446;28;20058;-66
2023/03/29 11:37:59;;;;;;;0.90;0.90;;;11.10;99.90;;;;;;5007981;28;20053;-66
2023/03/29 11:40:54;;;;;;;0.43;0.43;;;11.10;99.90;;;;;;5009721;28;20042;-66
2023/03/29 11:43:30;;;;;;;1.45;1.35;;;11.10;99.90;;;;;;4996273;28;20088;-66
2023/03/29 11:46:20;;;;;;;29.48;3.63;;;11.20;99.90;;;;;;5004408;28;20494;-66
2023/03/29 11:49:09;;;;;;;1.88;1.65;;;11.20;99.90;;;;;;5005191;28;20050;-66
2023/03/29 11:51:42;;;;;;;1.85;1.75;;;11.30;99.90;;;;;;5002665;28;20053;-66
2023/03/29 11:54:21;;;;;;;0.47;0.47;;;11.30;99.90;;;;;;4998174;28;20597;-66
2023/03/29 11:56:55;;;;;;;1.80;1.70;;;11.30;99.90;;;;;;5005751;28;20141;-66
2023/03/29 11:59:39;;;;;;;0.40;0.40;;;11.40;99.90;;;;;;5000558;28;20065;-66
2023/03/29 12:02:16;;;;;;;1.20;1.10;;;11.40;99.90;;;;;;5001622;28;20053;-66
2023/03/29 12:04:48;;;;;;;1.02;1.02;;;11.40;99.90;;;;;;5010084;28;20046;-66
2023/03/29 12:07:25;;;;;;;0.17;0.17;;;11.40;99.90;;;;;;4994407;28;20119;-66
2023/03/29 12:09:57;;;;;;;2.40;2.20;;;11.50;99.90;;;;;;4999656;28;20074;-66
2023/03/29 12:12:37;;;;;;;4.97;2.95;;;11.50;99.90;;;;;;5000138;28;20039;-66
2023/03/29 12:15:02;;;;;;;0.25;0.25;;;11.50;99.90;;;;;;5006497;28;20087;-66
2023/03/29 12:17:36;;;;;;;1.73;1.63;;;11.50;99.90;;;;;;5006047;28;20097;-66
2023/03/29 12:20:14;;;;;;;1.45;1.35;;;11.50;99.90;;;;;;4999617;28;20045;-66
2023/03/29 12:22:39;;;;;;;0.43;0.43;;;11.50;99.90;;;;;;5011048;28;20049;-66
2023/03/29 12:25:09;;;;;;;0.98;0.98;;;11.50;99.90;;;;;;5000845;28;20046;-66
2023/03/29 12:28:07;;;;;;;2.05;1.95;;;11.50;99.90;;;;;;5001452;28;20058;-66
2023/03/29 12:31:00;;;;;;;1.02;1.02;;;11.50;99.90;;;;;;5003006;28;20175;-66
2023/03/29 12:33:32;;;;;;;1.38;1.27;;;11.60;99.90;;;;;;5006381;28;20052;-66
2023/03/29 12:36:09;;;;;;;1.33;1.27;;;11.70;99.90;;;;;;5004608;28;20050;-66
2023/03/29 12:38:36;;;;;;;0.68;0.68;;;11.70;99.90;;;;;;5010233;28;20056;-66
2023/03/29 12:41:13;;;;;;;0.70;0.70;;;11.80;99.90;;;;;;5001091;28;20037;-66
2023/03/29 12:43:42;;;;;;;0.57;0.57;;;11.80;99.90;;;;;;5009259;28;20513;-66
2023/03/29 12:46:17;;;;;;;0.93;0.93;;;11.90;99.90;;;;;;5012740;28;20046;-65
2023/03/29 12:48:46;;;;;;;0.45;0.45;;;11.90;99.90;;;;;;5001794;28;20086;-66
2023/03/29 12:51:19;;;;;;;5.60;1.58;;;11.90;99.90;;;;;;5010385;28;20034;-66
2023/03/29 12:53:52;;;;;;;1.70;0.73;;;11.90;99.90;;;;;;5002211;28;20088;-66
2023/03/29 12:56:33;;;;;;;1.45;1.15;;;11.90;99.90;;;;;;5008841;28;20037;-66
2023/03/29 12:59:37;;;;;;;1.35;1.25;;;11.90;99.90;;;;;;4999877;28;20050;-66
2023/03/29 13:02:31;;;;;;;0.63;0.63;;;11.80;99.90;;;;;;5007707;28;20061;-66
2023/03/29 13:04:59;;;;;;;0.50;0.50;;;11.90;99.90;;;;;;5007172;28;20060;-65
2023/03/29 13:07:28;;;;;;;1.60;1.23;;;12.00;99.90;;;;;;4999162;28;20046;-66
2023/03/29 13:09:57;;;;;;;0.85;0.80;;;12.00;99.90;;;;;;5004008;28;20049;-66
2023/03/29 13:12:48;;;;;;;0.10;0.10;;;12.00;99.90;;;;;;5004517;28;20042;-66
2023/03/29 13:15:14;;;;;;;1.02;0.65;;;12.00;99.90;;;;;;5030894;28;20042;-66